UAL75 EDDH-KEWR
Flight info
| Callsign | UAL75 |
|---|---|
| Flight time | N/A |
| Altitude | 34000 |
| Route | WSN4B WSN N125 PREXA DCT RAVLO Y70 OTBED L60 PENIL UL70 BAGSO DCT MOLAK DCT RESNO/M079F350 NATA JANJO/N0449F360 N712B QUBIS DCT CBIRD DCT KJOHN DCT HANAA FLOSI4 |
| Aircraft | B764/H-SDE3FGHIM3RWXY/LB1 |
Departure
| Time | 2026-04-26 11:13 |
|---|---|
| Airport | Hamburg Helmut Schmidt Airport (EDDH) |
Arrival
| Time | N/A |
|---|---|
| Airport | Newark Liberty International Airport (KEWR) |
| Time | Latitude | Longitude | Altitude | Speed | Heading |
|---|---|---|---|---|---|
| 2026-04-26 10:47 | 53.62890 | 10.00214 | 65 ft | 0 kts | 122° |
| 2026-04-26 11:01 | 53.62890 | 10.00213 | 64 ft | 0 kts | 122° |
| 2026-04-26 11:06 | 53.62897 | 10.00197 | 64 ft | 2 kts | 122° |
| 2026-04-26 11:06 | 53.62905 | 10.00176 | 64 ft | 2 kts | 122° |
| 2026-04-26 11:06 | 53.62910 | 10.00161 | 64 ft | 2 kts | 122° |
| 2026-04-26 11:07 | 53.62918 | 10.00140 | 64 ft | 2 kts | 123° |
| 2026-04-26 11:07 | 53.62927 | 10.00119 | 64 ft | 2 kts | 137° |
| 2026-04-26 11:07 | 53.62939 | 10.00107 | 64 ft | 2 kts | 165° |
| 2026-04-26 11:07 | 53.62954 | 10.00104 | 65 ft | 2 kts | 189° |
| 2026-04-26 11:08 | 53.62966 | 10.00112 | 64 ft | 0 kts | 211° |
| 2026-04-26 11:08 | 53.62970 | 10.00116 | 64 ft | 0 kts | 213° |
| 2026-04-26 11:10 | 53.62967 | 10.00112 | 64 ft | 2 kts | 215° |
| 2026-04-26 11:10 | 53.62950 | 10.00086 | 64 ft | 3 kts | 228° |
| 2026-04-26 11:11 | 53.62931 | 10.00034 | 64 ft | 6 kts | 244° |
| 2026-04-26 11:11 | 53.62909 | 9.99956 | 64 ft | 8 kts | 245° |
| 2026-04-26 11:11 | 53.62881 | 9.99856 | 64 ft | 10 kts | 244° |
| 2026-04-26 11:11 | 53.62879 | 9.99745 | 64 ft | 9 kts | 306° |
| 2026-04-26 11:12 | 53.62905 | 9.99713 | 64 ft | 0 kts | 333° |
| 2026-04-26 11:12 | 53.62907 | 9.99711 | 64 ft | 3 kts | 333° |
| 2026-04-26 11:12 | 53.63062 | 9.99579 | 64 ft | 52 kts | 333° |
| 2026-04-26 11:12 | 53.63558 | 9.99150 | 65 ft | 105 kts | 333° |
| 2026-04-26 11:13 | 53.64346 | 9.98467 | 65 ft | 151 kts | 333° |
| 2026-04-26 11:13 | 53.65435 | 9.97530 | 185 ft | 195 kts | 333° |
| 2026-04-26 11:13 | 53.66700 | 9.96446 | 939 ft | 209 kts | 333° |
| 2026-04-26 11:13 | 53.68048 | 9.95290 | 1712 ft | 230 kts | 333° |
| 2026-04-26 11:14 | 53.69402 | 9.94135 | 3116 ft | 222 kts | 333° |
| 2026-04-26 11:14 | 53.70739 | 9.92689 | 3564 ft | 258 kts | 317° |
| 2026-04-26 11:14 | 53.71813 | 9.90052 | 2735 ft | 281 kts | 285° |
| 2026-04-26 11:14 | 53.71841 | 9.87060 | 3438 ft | 246 kts | 253° |
| 2026-04-26 11:15 | 53.71087 | 9.84481 | 4048 ft | 248 kts | 241° |
| 2026-04-26 11:15 | 53.70296 | 9.81784 | 4343 ft | 266 kts | 248° |
| 2026-04-26 11:15 | 53.69589 | 9.78904 | 5099 ft | 266 kts | 250° |
| 2026-04-26 11:15 | 53.68928 | 9.75996 | 5754 ft | 269 kts | 252° |
| 2026-04-26 11:16 | 53.68303 | 9.73057 | 6445 ft | 271 kts | 253° |
| 2026-04-26 11:16 | 53.67678 | 9.70025 | 7124 ft | 273 kts | 254° |
| 2026-04-26 11:16 | 53.67067 | 9.67007 | 7803 ft | 276 kts | 255° |
| 2026-04-26 11:16 | 53.66457 | 9.63963 | 8476 ft | 278 kts | 255° |
| 2026-04-26 11:17 | 53.65836 | 9.60847 | 9144 ft | 280 kts | 256° |
| 2026-04-26 11:17 | 53.65094 | 9.57774 | 9761 ft | 288 kts | 243° |
| 2026-04-26 11:17 | 53.63947 | 9.55005 | 10390 ft | 293 kts | 239° |
| 2026-04-26 11:17 | 53.62771 | 9.52208 | 11053 ft | 294 kts | 240° |
| 2026-04-26 11:18 | 53.61566 | 9.49362 | 11394 ft | 309 kts | 239° |
| 2026-04-26 11:18 | 53.60278 | 9.46329 | 11422 ft | 336 kts | 239° |
| 2026-04-26 11:18 | 53.58870 | 9.43043 | 11708 ft | 355 kts | 238° |
| 2026-04-26 11:18 | 53.57409 | 9.39654 | 12547 ft | 358 kts | 238° |
| 2026-04-26 11:19 | 53.55950 | 9.36268 | 13317 ft | 362 kts | 238° |
| 2026-04-26 11:19 | 53.55226 | 9.34589 | 13678 ft | 364 kts | 237° |
| 2026-04-26 11:19 | 53.55146 | 9.34405 | 13721 ft | 364 kts | 237° |